Time,TemperatureF,DewpointF,PressureIn,WindDirection,WindDirectionDegrees,WindSpeedMPH,WindSpeedGustMPH,Humidity,HourlyPrecipIn,Conditions,Clouds,dailyrainin,SoftwareType,DateUTC
2013-02-16 00:04:00,66.9,17.7,30.12,NE,53,0.0,0.0,15,0.00,,,0.00,Wunderground v.1.15,2013-02-16 08:04:00,
2013-02-16 00:14:00,68.1,17.0,30.11,ENE,65,1.0,1.0,14,0.00,,,0.00,Wunderground v.1.15,2013-02-16 08:14:00,
2013-02-16 00:24:00,68.4,17.3,30.11,ENE,67,1.0,1.0,14,0.00,,,0.00,Wunderground v.1.15,2013-02-16 08:24:00,
2013-02-16 00:34:00,68.7,15.8,30.11,NE,53,1.0,1.0,13,0.00,,,0.00,Wunderground v.1.15,2013-02-16 08:34:00,
2013-02-16 00:44:00,68.8,15.9,30.11,ENE,62,1.0,1.0,13,0.00,,,0.00,Wunderground v.1.15,2013-02-16 08:44:00,
2013-02-16 00:54:00,69.0,14.2,30.11,NE,38,0.0,5.0,12,0.00,,,0.00,Wunderground v.1.15,2013-02-16 08:54:00,
2013-02-16 01:04:00,68.9,14.1,30.10,ENE,59,1.0,1.0,12,0.00,,,0.00,Wunderground v.1.15,2013-02-16 09:04:00,
2013-02-16 01:14:00,68.8,15.9,30.10,NE,51,1.0,4.0,13,0.00,,,0.00,Wunderground v.1.15,2013-02-16 09:14:00,
2013-02-16 01:24:00,68.1,15.3,30.11,ENE,71,1.0,1.0,13,0.00,,,0.00,Wunderground v.1.15,2013-02-16 09:24:00,
2013-02-16 01:34:00,67.6,14.9,30.11,NNE,30,0.0,0.0,13,0.00,,,0.00,Wunderground v.1.15,2013-02-16 09:34:00,
2013-02-16 01:44:00,67.5,14.9,30.10,NE,41,0.0,0.0,13,0.00,,,0.00,Wunderground v.1.15,2013-02-16 09:44:00,
2013-02-16 01:54:00,67.4,14.8,30.10,NE,53,0.0,0.0,13,0.00,,,0.00,Wunderground v.1.15,2013-02-16 09:54:00,
2013-02-16 02:04:00,67.0,14.5,30.10,ENE,65,0.0,0.0,13,0.00,,,0.00,Wunderground v.1.15,2013-02-16 10:04:00,
2013-02-16 02:14:00,66.1,25.0,30.10,West,273,0.0,0.0,21,0.00,,,0.00,Wunderground v.1.15,2013-02-16 10:14:00,
2013-02-16 02:24:00,63.4,27.9,30.10,West,273,0.0,0.0,26,0.00,,,0.00,Wunderground v.1.15,2013-02-16 10:24:00,
2013-02-16 02:34:00,60.8,29.1,30.10,West,273,0.0,0.0,30,0.00,,,0.00,Wunderground v.1.15,2013-02-16 10:34:00,
2013-02-16 02:44:00,59.2,29.3,30.10,West,273,0.0,0.0,32,0.00,,,0.00,Wunderground v.1.15,2013-02-16 10:44:00,
2013-02-16 02:54:00,59.3,24.4,30.10,ENE,57,0.0,0.0,26,0.00,,,0.00,Wunderground v.1.15,2013-02-16 10:54:00,
2013-02-16 03:04:00,60.0,21.0,30.10,ENE,57,0.0,0.0,22,0.00,,,0.00,Wunderground v.1.15,2013-02-16 11:04:00,
2013-02-16 03:14:00,61.9,16.5,30.09,NNE,28,0.0,0.0,17,0.00,,,0.00,Wunderground v.1.15,2013-02-16 11:14:00,
2013-02-16 03:24:00,63.8,15.2,30.09,NE,42,0.0,0.0,15,0.00,,,0.00,Wunderground v.1.15,2013-02-16 11:24:00,
2013-02-16 03:34:00,64.7,14.3,30.09,ENE,76,0.0,0.0,14,0.00,,,0.00,Wunderground v.1.15,2013-02-16 11:34:00,
2013-02-16 03:44:00,64.9,19.0,30.09,SSW,205,0.0,0.0,17,0.00,,,0.00,Wunderground v.1.15,2013-02-16 11:44:00,
2013-02-16 03:54:00,63.0,20.0,30.09,SW,223,0.0,0.0,19,0.00,,,0.00,Wunderground v.1.15,2013-02-16 11:54:00,
2013-02-16 04:04:00,60.9,18.3,30.09,SW,223,0.0,0.0,19,0.00,,,0.00,Wunderground v.1.15,2013-02-16 12:04:00,
2013-02-16 04:14:00,61.8,15.1,30.09,ENE,75,0.0,0.0,16,0.00,,,0.00,Wunderground v.1.15,2013-02-16 12:14:00,
2013-02-16 04:24:00,64.5,14.2,30.09,ENE,78,0.0,0.0,14,0.00,,,0.00,Wunderground v.1.15,2013-02-16 12:24:00,
2013-02-16 04:34:00,65.9,13.6,30.09,ENE,64,0.0,0.0,13,0.00,,,0.00,Wunderground v.1.15,2013-02-16 12:34:00,
2013-02-16 04:44:00,66.1,13.8,30.09,North,349,0.0,5.0,13,0.00,,,0.00,Wunderground v.1.15,2013-02-16 12:44:00,
2013-02-16 04:54:00,66.7,12.4,30.09,ENE,71,1.0,1.0,12,0.00,,,0.00,Wunderground v.1.15,2013-02-16 12:54:00,
2013-02-16 05:04:00,66.9,12.6,30.09,ENE,74,0.0,0.0,12,0.00,,,0.00,Wunderground v.1.15,2013-02-16 13:04:00,
2013-02-16 05:14:00,67.2,12.8,30.09,ENE,63,0.0,0.0,12,0.00,,,0.00,Wunderground v.1.15,2013-02-16 13:14:00,
2013-02-16 05:24:00,67.0,12.6,30.09,East,89,0.0,0.0,12,0.00,,,0.00,Wunderground v.1.15,2013-02-16 13:24:00,
2013-02-16 05:34:00,67.0,12.6,30.09,East,96,0.0,0.0,12,0.00,,,0.00,Wunderground v.1.15,2013-02-16 13:34:00,
2013-02-16 05:44:00,66.9,14.4,30.09,East,97,0.0,0.0,13,0.00,,,0.00,Wunderground v.1.15,2013-02-16 13:44:00,
2013-02-16 05:54:00,66.9,12.6,30.09,ENE,71,0.0,0.0,12,0.00,,,0.00,Wunderground v.1.15,2013-02-16 13:54:00,
2013-02-16 06:04:00,66.8,14.3,30.09,East,92,0.0,0.0,13,0.00,,,0.00,Wunderground v.1.15,2013-02-16 14:04:00,
2013-02-16 06:14:00,65.6,16.6,30.10,East,92,0.0,0.0,15,0.00,,,0.00,Wunderground v.1.15,2013-02-16 14:14:00,
2013-02-16 06:24:00,63.7,18.0,30.10,East,92,0.0,0.0,17,0.00,,,0.00,Wunderground v.1.15,2013-02-16 14:24:00,
2013-02-16 06:34:00,63.9,16.8,30.10,ENE,71,0.0,0.0,16,0.00,,,0.00,Wunderground v.1.15,2013-02-16 14:34:00,
2013-02-16 06:44:00,63.2,18.9,30.10,ENE,71,0.0,0.0,18,0.00,,,0.00,Wunderground v.1.15,2013-02-16 14:44:00,
2013-02-16 06:54:00,63.2,18.9,30.10,ENE,71,0.0,0.0,18,0.00,,,0.00,Wunderground v.1.15,2013-02-16 14:54:00,
2013-02-16 07:04:00,62.0,23.7,30.11,ENE,71,0.0,0.0,23,0.00,,,0.00,Wunderground v.1.15,2013-02-16 15:04:00,
2013-02-16 07:14:00,59.7,25.6,30.11,ENE,71,0.0,0.0,27,0.00,,,0.00,Wunderground v.1.15,2013-02-16 15:14:00,
2013-02-16 07:24:00,58.7,26.5,30.11,ENE,71,0.0,0.0,29,0.00,,,0.00,Wunderground v.1.15,2013-02-16 15:24:00,
2013-02-16 07:34:00,59.1,26.8,30.11,ENE,71,0.0,0.0,29,0.00,,,0.00,Wunderground v.1.15,2013-02-16 15:34:00,
2013-02-16 07:44:00,60.5,29.7,30.11,ENE,71,0.0,0.0,31,0.00,,,0.00,Wunderground v.1.15,2013-02-16 15:44:00,
2013-02-16 07:54:00,61.1,33.2,30.11,ENE,71,0.0,0.0,35,0.00,,,0.00,Wunderground v.1.15,2013-02-16 15:54:00,
2013-02-16 08:04:00,62.9,33.3,30.11,ENE,71,0.0,0.0,33,0.00,,,0.00,Wunderground v.1.15,2013-02-16 16:04:00,
2013-02-16 08:14:00,65.2,31.2,30.11,ENE,71,0.0,0.0,28,0.00,,,0.00,Wunderground v.1.15,2013-02-16 16:14:00,
2013-02-16 08:24:00,68.1,30.9,30.12,ENE,71,0.0,0.0,25,0.00,,,0.00,Wunderground v.1.15,2013-02-16 16:24:00,
2013-02-16 08:34:00,70.6,23.6,30.11,NE,36,0.0,0.0,17,0.00,,,0.00,Wunderground v.1.15,2013-02-16 16:34:00,
2013-02-16 08:44:00,73.4,29.9,30.11,NE,36,0.0,0.0,20,0.00,,,0.00,Wunderground v.1.15,2013-02-16 16:44:00,
2013-02-16 08:54:00,73.8,24.8,30.11,ENE,78,0.0,0.0,16,0.00,,,0.00,Wunderground v.1.15,2013-02-16 16:54:00,
2013-02-16 09:04:00,74.6,22.2,30.11,SE,138,0.0,0.0,14,0.00,,,0.00,Wunderground v.1.15,2013-02-16 17:04:00,
2013-02-16 09:14:00,75.4,26.1,30.11,SE,142,0.0,0.0,16,0.00,,,0.00,Wunderground v.1.15,2013-02-16 17:14:00,
2013-02-16 09:24:00,76.1,19.8,30.11,South,191,0.0,0.0,12,0.00,,,0.00,Wunderground v.1.15,2013-02-16 17:24:00,
2013-02-16 09:34:00,75.6,41.1,30.11,SW,221,0.0,0.0,29,0.00,,,0.00,Wunderground v.1.15,2013-02-16 17:34:00,
2013-02-16 09:44:00,71.0,38.0,30.11,WNW,289,0.0,0.0,30,0.00,,,0.00,Wunderground v.1.15,2013-02-16 17:44:00,
2013-02-16 09:54:00,70.2,34.6,30.11,WSW,253,0.0,0.0,27,0.00,,,0.00,Wunderground v.1.15,2013-02-16 17:54:00,
2013-02-16 10:04:00,68.1,28.9,30.11,West,261,0.0,0.0,23,0.00,,,0.00,Wunderground v.1.15,2013-02-16 18:04:00,
2013-02-16 10:14:00,68.4,30.2,30.11,West,267,0.0,0.0,24,0.00,,,0.00,Wunderground v.1.15,2013-02-16 18:14:00,
2013-02-16 10:24:00,69.8,29.2,30.11,WSW,254,0.0,0.0,22,0.00,,,0.00,Wunderground v.1.15,2013-02-16 18:24:00,
2013-02-16 10:34:00,70.8,25.2,30.11,WNW,296,0.0,4.0,18,0.00,,,0.00,Wunderground v.1.15,2013-02-16 18:34:00,
2013-02-16 10:44:00,71.2,22.7,30.11,West,272,1.0,1.0,16,0.00,,,0.00,Wunderground v.1.15,2013-02-16 18:44:00,
2013-02-16 10:54:00,70.8,22.3,30.10,WNW,289,1.0,1.0,16,0.00,,,0.00,Wunderground v.1.15,2013-02-16 18:54:00,
2013-02-16 11:04:00,72.1,26.2,30.10,West,263,0.0,0.0,18,0.00,,,0.00,Wunderground v.1.15,2013-02-16 19:04:00,
2013-02-16 11:14:00,73.0,20.9,30.09,WNW,289,0.0,0.0,14,0.00,,,0.00,Wunderground v.1.15,2013-02-16 19:14:00,
2013-02-16 11:24:00,73.6,23.1,30.09,West,265,0.0,0.0,15,0.00,,,0.00,Wunderground v.1.15,2013-02-16 19:24:00,
2013-02-16 11:34:00,73.7,21.5,30.08,WNW,294,1.0,1.0,14,0.00,,,0.00,Wunderground v.1.15,2013-02-16 19:34:00,
2013-02-16 11:44:00,73.2,24.3,30.07,SW,226,1.0,1.0,16,0.00,,,0.00,Wunderground v.1.15,2013-02-16 19:44:00,
2013-02-16 11:54:00,73.8,26.2,30.07,WNW,288,0.0,0.0,17,0.00,,,0.00,Wunderground v.1.15,2013-02-16 19:54:00,
2013-02-16 12:04:00,74.1,25.0,30.06,SW,220,1.0,1.0,16,0.00,,,0.00,Wunderground v.1.15,2013-02-16 20:04:00,
2013-02-16 12:14:00,74.7,23.9,30.05,WNW,286,2.0,5.0,15,0.00,,,0.00,Wunderground v.1.15,2013-02-16 20:14:00,
2013-02-16 12:24:00,74.4,18.4,30.04,West,281,5.0,5.0,12,0.00,,,0.00,Wunderground v.1.15,2013-02-16 20:24:00,
2013-02-16 12:34:00,74.5,20.4,30.04,WNW,287,4.0,9.0,13,0.00,,,0.00,Wunderground v.1.15,2013-02-16 20:34:00,
2013-02-16 12:44:00,74.3,18.4,30.03,SW,234,5.0,5.0,12,0.00,,,0.00,Wunderground v.1.15,2013-02-16 20:44:00,
2013-02-16 12:54:00,74.6,20.5,30.02,West,275,4.0,7.0,13,0.00,,,0.00,Wunderground v.1.15,2013-02-16 20:54:00,
2013-02-16 13:04:00,73.9,18.0,30.02,WNW,288,6.0,6.0,12,0.00,,,0.00,Wunderground v.1.15,2013-02-16 21:04:00,
2013-02-16 13:14:00,73.9,19.9,30.02,NW,322,4.0,5.0,13,0.00,,,0.00,Wunderground v.1.15,2013-02-16 21:14:00,
2013-02-16 13:24:00,73.9,19.9,30.01,NW,315,5.0,5.0,13,0.00,,,0.00,Wunderground v.1.15,2013-02-16 21:24:00,
2013-02-16 13:34:00,73.8,19.8,30.01,West,264,5.0,5.0,13,0.00,,,0.00,Wunderground v.1.15,2013-02-16 21:34:00,
2013-02-16 13:44:00,74.0,21.7,30.00,NW,311,4.0,9.0,14,0.00,,,0.00,Wunderground v.1.15,2013-02-16 21:44:00,
2013-02-16 13:54:00,74.0,20.0,30.00,WNW,290,4.0,13.0,13,0.00,,,0.00,Wunderground v.1.15,2013-02-16 21:54:00,
2013-02-16 14:04:00,74.4,18.4,30.00,WSW,252,3.0,3.0,12,0.00,,,0.00,Wunderground v.1.15,2013-02-16 22:04:00,
2013-02-16 14:14:00,74.7,20.5,29.99,WSW,250,2.0,3.0,13,0.00,,,0.00,Wunderground v.1.15,2013-02-16 22:14:00,
2013-02-16 14:24:00,74.5,20.4,29.99,West,277,2.0,2.0,13,0.00,,,0.00,Wunderground v.1.15,2013-02-16 22:24:00,
2013-02-16 14:34:00,74.5,18.5,29.99,West,281,3.0,3.0,12,0.00,,,0.00,Wunderground v.1.15,2013-02-16 22:34:00,
2013-02-16 14:44:00,74.3,22.0,29.99,WNW,292,3.0,3.0,14,0.00,,,0.00,Wunderground v.1.15,2013-02-16 22:44:00,
2013-02-16 14:54:00,73.6,19.7,29.99,WNW,300,5.0,6.0,13,0.00,,,0.00,Wunderground v.1.15,2013-02-16 22:54:00,
2013-02-16 15:04:00,73.4,19.5,29.98,WNW,288,4.0,4.0,13,0.00,,,0.00,Wunderground v.1.15,2013-02-16 23:04:00,
2013-02-16 15:14:00,73.5,15.7,29.98,WNW,290,4.0,4.0,11,0.00,,,0.00,Wunderground v.1.15,2013-02-16 23:14:00,
2013-02-16 15:24:00,73.1,19.3,29.98,WNW,282,4.0,5.0,13,0.00,,,0.00,Wunderground v.1.15,2013-02-16 23:24:00,
2013-02-16 15:34:00,73.0,17.3,29.98,WNW,295,5.0,8.0,12,0.00,,,0.00,Wunderground v.1.15,2013-02-16 23:34:00,
2013-02-16 15:44:00,72.6,15.0,29.98,NNW,338,6.0,6.0,11,0.00,,,0.00,Wunderground v.1.15,2013-02-16 23:44:00,
2013-02-16 15:54:00,72.9,15.3,29.97,West,281,3.0,3.0,11,0.00,,,0.00,Wunderground v.1.15,2013-02-16 23:54:00,
2013-02-16 16:04:00,73.1,17.4,29.97,WNW,287,2.0,2.0,12,0.00,,,0.00,Wunderground v.1.15,2013-02-17 00:04:00,
2013-02-16 16:14:00,73.3,15.6,29.97,WNW,284,2.0,2.0,11,0.00,,,0.00,Wunderground v.1.15,2013-02-17 00:14:00,
2013-02-16 16:24:00,73.5,17.7,29.97,West,268,1.0,1.0,12,0.00,,,0.00,Wunderground v.1.15,2013-02-17 00:24:00,
2013-02-16 16:34:00,73.9,16.0,29.96,West,272,0.0,0.0,11,0.00,,,0.00,Wunderground v.1.15,2013-02-17 00:34:00,
2013-02-16 16:44:00,73.7,15.9,29.96,NW,309,1.0,1.0,11,0.00,,,0.00,Wunderground v.1.15,2013-02-17 00:44:00,
2013-02-16 16:54:00,73.5,17.7,29.96,WNW,286,0.0,0.0,12,0.00,,,0.00,Wunderground v.1.15,2013-02-17 00:54:00,
2013-02-16 17:04:00,73.1,17.4,29.96,NNW,340,0.0,0.0,12,0.00,,,0.00,Wunderground v.1.15,2013-02-17 01:04:00,
2013-02-16 17:14:00,71.8,18.3,29.96,NW,304,1.0,1.0,13,0.00,,,0.00,Wunderground v.1.15,2013-02-17 01:14:00,
2013-02-16 17:24:00,71.1,17.7,29.96,NW,315,0.0,0.0,13,0.00,,,0.00,Wunderground v.1.15,2013-02-17 01:24:00,
2013-02-16 17:34:00,70.3,17.1,29.96,NNW,339,0.0,0.0,13,0.00,,,0.00,Wunderground v.1.15,2013-02-17 01:34:00,
2013-02-16 17:44:00,69.5,18.2,29.96,NW,321,0.0,0.0,14,0.00,,,0.00,Wunderground v.1.15,2013-02-17 01:44:00,
2013-02-16 17:54:00,68.8,19.2,29.97,NW,321,0.0,0.0,15,0.00,,,0.00,Wunderground v.1.15,2013-02-17 01:54:00,
2013-02-16 18:04:00,67.8,19.9,29.97,NW,321,0.0,0.0,16,0.00,,,0.00,Wunderground v.1.15,2013-02-17 02:04:00,
2013-02-16 18:14:00,66.7,21.8,29.97,NW,321,0.0,0.0,18,0.00,,,0.00,Wunderground v.1.15,2013-02-17 02:14:00,
2013-02-16 18:24:00,65.7,21.0,29.97,North,5,0.0,0.0,18,0.00,,,0.00,Wunderground v.1.15,2013-02-17 02:24:00,
2013-02-16 18:34:00,66.8,17.6,29.97,NNE,17,0.0,0.0,15,0.00,,,0.00,Wunderground v.1.15,2013-02-17 02:34:00,
2013-02-16 18:44:00,67.8,19.9,29.97,NNW,341,0.0,0.0,16,0.00,,,0.00,Wunderground v.1.15,2013-02-17 02:44:00,
2013-02-16 18:54:00,67.2,19.4,29.97,NNW,345,0.0,0.0,16,0.00,,,0.00,Wunderground v.1.15,2013-02-17 02:54:00,
2013-02-16 19:04:00,66.4,20.2,29.97,NNW,345,0.0,0.0,17,0.00,,,0.00,Wunderground v.1.15,2013-02-17 03:04:00,
2013-02-16 19:14:00,66.0,21.2,29.97,NNW,345,0.0,0.0,18,0.00,,,0.00,Wunderground v.1.15,2013-02-17 03:14:00,
2013-02-16 19:24:00,65.0,22.9,29.97,NNW,345,0.0,0.0,20,0.00,,,0.00,Wunderground v.1.15,2013-02-17 03:24:00,
2013-02-16 19:34:00,63.5,23.9,29.96,NNW,345,0.0,0.0,22,0.00,,,0.00,Wunderground v.1.15,2013-02-17 03:34:00,
2013-02-16 19:44:00,62.6,24.2,29.96,NNW,345,0.0,0.0,23,0.00,,,0.00,Wunderground v.1.15,2013-02-17 03:44:00,
2013-02-16 19:54:00,61.6,25.4,29.96,NNW,345,0.0,0.0,25,0.00,,,0.00,Wunderground v.1.15,2013-02-17 03:54:00,
2013-02-16 20:04:00,60.3,27.9,29.97,NNW,345,0.0,0.0,29,0.00,,,0.00,Wunderground v.1.15,2013-02-17 04:04:00,
2013-02-16 20:14:00,59.1,27.7,29.97,NNW,345,0.0,0.0,30,0.00,,,0.00,Wunderground v.1.15,2013-02-17 04:14:00,
2013-02-16 20:24:00,58.6,28.0,29.96,NNW,345,0.0,0.0,31,0.00,,,0.00,Wunderground v.1.15,2013-02-17 04:24:00,
2013-02-16 20:34:00,58.1,28.4,29.96,NNW,345,0.0,0.0,32,0.00,,,0.00,Wunderground v.1.15,2013-02-17 04:34:00,
2013-02-16 20:44:00,57.4,29.2,29.97,NNW,345,0.0,0.0,34,0.00,,,0.00,Wunderground v.1.15,2013-02-17 04:44:00,
2013-02-16 20:54:00,56.9,28.8,29.97,NNW,345,0.0,0.0,34,0.00,,,0.00,Wunderground v.1.15,2013-02-17 04:54:00,
2013-02-16 21:04:00,56.7,29.3,29.97,NNW,345,0.0,0.0,35,0.00,,,0.00,Wunderground v.1.15,2013-02-17 05:04:00,
2013-02-16 21:14:00,56.2,30.2,29.97,NNW,345,0.0,0.0,37,0.00,,,0.00,Wunderground v.1.15,2013-02-17 05:14:00,
2013-02-16 21:24:00,55.6,30.4,29.97,NNW,345,0.0,0.0,38,0.00,,,0.00,Wunderground v.1.15,2013-02-17 05:24:00,
2013-02-16 21:34:00,55.0,31.1,29.97,NNW,345,0.0,0.0,40,0.00,,,0.00,Wunderground v.1.15,2013-02-17 05:34:00,
2013-02-16 21:44:00,54.5,30.6,29.97,NNW,345,0.0,0.0,40,0.00,,,0.00,Wunderground v.1.15,2013-02-17 05:44:00,
2013-02-16 21:54:00,54.3,30.5,29.97,NNW,345,0.0,0.0,40,0.00,,,0.00,Wunderground v.1.15,2013-02-17 05:54:00,
2013-02-16 22:04:00,54.2,30.4,29.97,NNW,345,0.0,0.0,40,0.00,,,0.00,Wunderground v.1.15,2013-02-17 06:04:00,
2013-02-16 22:14:00,53.0,30.5,29.97,ESE,107,0.0,0.0,42,0.00,,,0.00,Wunderground v.1.15,2013-02-17 06:14:00,
2013-02-16 22:24:00,52.0,31.3,29.97,ESE,107,0.0,0.0,45,0.00,,,0.00,Wunderground v.1.15,2013-02-17 06:24:00,
2013-02-16 22:34:00,51.3,31.2,29.97,ESE,107,0.0,0.0,46,0.00,,,0.00,Wunderground v.1.15,2013-02-17 06:34:00,
2013-02-16 22:44:00,50.8,31.8,29.97,ESE,107,0.0,0.0,48,0.00,,,0.00,Wunderground v.1.15,2013-02-17 06:44:00,
2013-02-16 22:54:00,50.3,32.4,29.97,ESE,107,0.0,0.0,50,0.00,,,0.00,Wunderground v.1.15,2013-02-17 06:54:00,
2013-02-16 23:04:00,50.0,32.1,29.97,ESE,107,0.0,0.0,50,0.00,,,0.00,Wunderground v.1.15,2013-02-17 07:04:00,
2013-02-16 23:14:00,50.0,31.6,29.97,ESE,107,0.0,0.0,49,0.00,,,0.00,Wunderground v.1.15,2013-02-17 07:14:00,
2013-02-16 23:24:00,50.5,32.0,29.97,ESE,107,0.0,0.0,49,0.00,,,0.00,Wunderground v.1.15,2013-02-17 07:24:00,
2013-02-16 23:34:00,52.1,35.0,29.97,ESE,107,0.0,0.0,52,0.00,,,0.00,Wunderground v.1.15,2013-02-17 07:34:00,
2013-02-16 23:44:00,53.1,36.9,29.96,ESE,107,0.0,0.0,54,0.00,,,0.00,Wunderground v.1.15,2013-02-17 07:44:00,
2013-02-16 23:54:00,53.3,37.1,29.96,ESE,107,0.0,0.0,54,0.00,,,0.00,Wunderground v.1.15,2013-02-17 07:54:00,